| time (UTC) | temp F | wind direction | speed MPH | gust MPH | rain 1hr in | rain 24hr in | rain mn in | humidity % | barometer mb |
| 20260508224612 | 65 | 360 | 2.0 | 7.0 | 0.00 | 0.00 | 0.00 | 41 | 1005.4 |
| 20260508223017 | 65 | 313 | 3.0 | 6.0 | 0.00 | 0.00 | 0.00 | 39 | 1005.3 |
| 20260508221516 | 65 | 227 | 3.0 | 6.0 | 0.00 | 0.00 | 0.00 | 38 | 1005.5 |
| 20260508220042 | 65 | 360 | 3.0 | 8.0 | 0.00 | 0.00 | 0.00 | 40 | 1005.6 |
| 20260508214556 | 66 | 255 | 5.0 | 12.0 | 0.00 | 0.00 | 0.00 | 38 | 1005.5 |
| 20260508213117 | 65 | 360 | 2.0 | 5.0 | 0.00 | 0.00 | 0.00 | 42 | 1005.8 |
| 20260508211501 | 65 | 360 | 2.0 | 8.0 | 0.00 | 0.00 | 0.00 | 40 | 1005.9 |
| 20260508210026 | 65 | 336 | 2.0 | 5.0 | 0.00 | 0.00 | 0.00 | 41 | 1006.0 |
| 20260508204609 | 64 | 219 | 3.0 | 8.0 | 0.00 | 0.00 | 0.00 | 39 | 1006.1 |
| 20260508203011 | 65 | 360 | 4.0 | 9.0 | 0.00 | 0.00 | 0.00 | 39 | 1006.3 |
| 20260508201525 | 65 | 294 | 5.0 | 11.0 | 0.00 | 0.00 | 0.00 | 39 | 1006.5 |
| 20260508200029 | 65 | 341 | 4.0 | 11.0 | 0.00 | 0.00 | 0.00 | 39 | 1006.6 |
| 20260508194532 | 64 | 294 | 5.0 | 10.0 | 0.00 | 0.00 | 0.00 | 39 | 1006.9 |
| 20260508193059 | 62 | 5 | 2.0 | 8.0 | 0.00 | 0.00 | 0.00 | 42 | 1007.2 |
| 20260508191532 | 63 | 5 | 4.0 | 10.0 | 0.00 | 0.00 | 0.00 | 43 | 1007.4 |
| 20260508190035 | 63 | 266 | 3.0 | 10.0 | 0.00 | 0.00 | 0.00 | 41 | 1007.6 |
| 20260508184525 | 63 | 360 | 6.0 | 11.0 | 0.00 | 0.00 | 0.00 | 41 | 1007.9 |
| 20260508183024 | 62 | 323 | 4.0 | 9.0 | 0.00 | 0.00 | 0.00 | 39 | 1008.0 |
| 20260508181524 | 61 | 308 | 3.0 | 9.0 | 0.00 | 0.00 | 0.00 | 42 | 1008.3 |
| 20260508180026 | 62 | 360 | 2.0 | 8.0 | 0.00 | 0.00 | 0.00 | 44 | 1008.5 |
| 20260508173038 | 61 | 325 | 5.0 | 12.0 | 0.00 | 0.00 | 0.00 | 42 | 1008.7 |
| 20260508171615 | 61 | 323 | 4.0 | 10.0 | 0.00 | 0.00 | 0.00 | 40 | 1009.0 |
| 20260508170048 | 60 | 24 | 3.0 | 9.0 | 0.00 | 0.00 | 0.00 | 41 | 1009.4 |
| 20260508164558 | 60 | 360 | 2.0 | 10.0 | 0.00 | 0.00 | 0.00 | 42 | 1009.7 |
| 20260508163103 | 59 | 360 | 1.0 | 5.0 | 0.00 | 0.00 | 0.00 | 46 | 1009.8 |
| 20260508161501 | 59 | 294 | 3.0 | 7.0 | 0.00 | 0.00 | 0.00 | 46 | 1009.8 |
| 20260508160007 | 58 | 321 | 3.0 | 8.0 | 0.00 | 0.00 | 0.00 | 48 | 1010.0 |
| 20260508154528 | 59 | 309 | 2.0 | 6.0 | 0.00 | 0.00 | 0.00 | 47 | 1010.2 |
| 20260508153041 | 57 | 323 | 1.0 | 8.0 | 0.00 | 0.00 | 0.00 | 47 | 1010.1 |
| 20260508151547 | 57 | 308 | 2.0 | 4.0 | 0.00 | 0.00 | 0.00 | 50 | 1010.3 |
| 20260508150040 | 57 | 360 | 1.0 | 5.0 | 0.00 | 0.00 | 0.00 | 54 | 1010.3 |
| 20260508144547 | 55 | 360 | 0.0 | 3.0 | 0.00 | 0.00 | 0.00 | 58 | 1010.6 |
| 20260508143043 | 53 | 360 | 0.0 | 3.0 | 0.00 | 0.00 | 0.00 | 62 | 1010.6 |
| 20260508141544 | 52 | 29 | 0.0 | 1.0 | 0.00 | 0.00 | 0.00 | 67 | 1010.6 |
| 20260508140041 | 50 | 40 | 0.0 | 3.0 | 0.00 | 0.00 | 0.00 | 73 | 1011.0 |
| 20260508134611 | 49 | 360 | 0.0 | 1.0 | 0.00 | 0.00 | 0.00 | 77 | 1011.0 |
| 20260508133111 | 48 | 360 | 0.0 | 2.0 | 0.00 | 0.00 | 0.00 | 80 | 1011.0 |
| 20260508131603 | 48 | 360 | 1.0 | 4.0 | 0.00 | 0.00 | 0.00 | 82 | 1011.0 |
| 20260508130104 | 47 | 322 | 0.0 | 0.0 | 0.00 | 0.00 | 0.00 | 84 | 1011.2 |
| 20260508124603 | 46 | 360 | 0.0 | 2.0 | 0.00 | 0.00 | 0.00 | 88 | 1011.2 |
| 20260508123111 | 44 | 360 | 0.0 | 0.0 | 0.00 | 0.00 | 0.00 | 90 | 1011.0 |
| 20260508121608 | 43 | 360 | 0.0 | 0.0 | 0.00 | 0.00 | 0.00 | 91 | 1011.0 |
| 20260508120004 | 41 | 360 | 0.0 | 0.0 | 0.00 | 0.00 | 0.00 | 92 | 1010.7 |
| 20260508114518 | 39 | 360 | 0.0 | 0.0 | 0.00 | 0.00 | 0.00 | 91 | 1010.5 |
| 20260508113037 | 38 | 360 | 0.0 | 0.0 | 0.00 | 0.00 | 0.00 | 90 | 1010.5 |
| 20260508111556 | 38 | 360 | 0.0 | 0.0 | 0.00 | 0.00 | 0.00 | 90 | 1010.4 |
| 20260508110047 | 37 | 360 | 0.0 | 0.0 | 0.00 | 0.00 | 0.00 | 89 | 1010.2 |
| 20260508104548 | 37 | 360 | 0.0 | 0.0 | 0.00 | 0.00 | 0.00 | 89 | 1010.0 |
| 20260508103043 | 38 | 360 | 0.0 | 0.0 | 0.00 | 0.00 | 0.00 | 89 | 1010.0 |
| 20260508101547 | 38 | 360 | 0.0 | 0.0 | 0.00 | 0.00 | 0.00 | 88 | 1010.0 |
| 20260508100040 | 39 | 360 | 0.0 | 0.0 | 0.00 | 0.00 | 0.00 | 89 | 1010.0 |
| 20260508094539 | 39 | 360 | 0.0 | 0.0 | 0.00 | 0.00 | 0.00 | 89 | 1010.1 |
| 20260508093039 | 39 | 360 | 0.0 | 0.0 | 0.00 | 0.00 | 0.00 | 89 | 1010.0 |
| 20260508091604 | 39 | 360 | 0.0 | 0.0 | 0.00 | 0.00 | 0.00 | 88 | 1010.0 |
| 20260508090036 | 39 | 360 | 0.0 | 0.0 | 0.00 | 0.00 | 0.00 | 88 | 1010.1 |
| 20260508084534 | 40 | 360 | 0.0 | 0.0 | 0.00 | 0.00 | 0.00 | 88 | 1010.1 |
| 20260508083037 | 40 | 360 | 0.0 | 0.0 | 0.00 | 0.00 | 0.00 | 88 | 1010.1 |
| 20260508081532 | 40 | 360 | 0.0 | 0.0 | 0.00 | 0.00 | 0.00 | 88 | 1010.2 |
| 20260508080032 | 40 | 360 | 0.0 | 0.0 | 0.00 | 0.00 | 0.00 | 88 | 1010.3 |
| 20260508074531 | 40 | 360 | 0.0 | 0.0 | 0.00 | 0.00 | 0.00 | 88 | 1010.2 |
| 20260508073033 | 40 | 360 | 0.0 | 0.0 | 0.00 | 0.00 | 0.00 | 88 | 1010.5 |
| 20260508071532 | 40 | 360 | 0.0 | 0.0 | 0.00 | 0.00 | 0.00 | 88 | 1010.7 |
| 20260508070027 | 40 | 360 | 0.0 | 0.0 | 0.00 | 0.00 | 0.00 | 87 | 1010.8 |
| 20260508064532 | 40 | 360 | 0.0 | 0.0 | 0.00 | 0.00 | 0.00 | 87 | 1010.9 |
| 20260508063036 | 40 | 360 | 0.0 | 0.0 | 0.00 | 0.00 | 0.00 | 86 | 1010.9 |
| 20260508061526 | 41 | 360 | 0.0 | 0.0 | 0.00 | 0.00 | 0.00 | 86 | 1010.8 |
| 20260508060027 | 41 | 360 | 0.0 | 0.0 | 0.00 | 0.00 | 0.00 | 84 | 1010.7 |
| 20260508054518 | 42 | 360 | 0.0 | 0.0 | 0.00 | 0.00 | 0.00 | 84 | 1010.8 |
| 20260508053023 | 42 | 360 | 0.0 | 0.0 | 0.00 | 0.00 | 0.00 | 83 | 1010.7 |
| 20260508051519 | 43 | 360 | 0.0 | 0.0 | 0.00 | 0.00 | 0.00 | 83 | 1010.8 |
| 20260508050015 | 43 | 360 | 0.0 | 0.0 | 0.00 | 0.00 | 0.00 | 83 | 1010.7 |
| 20260508044511 | 43 | 360 | 0.0 | 0.0 | 0.00 | 0.00 | 0.00 | 82 | 1010.5 |
| 20260508043009 | 43 | 360 | 0.0 | 0.0 | 0.00 | 0.00 | 0.00 | 80 | 1010.6 |
| 20260508041510 | 44 | 360 | 0.0 | 0.0 | 0.00 | 0.00 | 0.00 | 79 | 1010.6 |
| 20260508040004 | 45 | 360 | 0.0 | 0.0 | 0.00 | 0.00 | 0.00 | 78 | 1010.6 |
| 20260508034503 | 45 | 360 | 0.0 | 0.0 | 0.00 | 0.00 | 0.00 | 77 | 1010.6 |
| 20260508033009 | 46 | 360 | 0.0 | 0.0 | 0.00 | 0.00 | 0.00 | 76 | 1010.6 |
| 20260508031503 | 46 | 360 | 0.0 | 0.0 | 0.00 | 0.00 | 0.00 | 76 | 1010.6 |
| 20260508030008 | 46 | 360 | 0.0 | 0.0 | 0.00 | 0.00 | 0.00 | 76 | 1010.8 |
| 20260508024503 | 46 | 360 | 0.0 | 0.0 | 0.00 | 0.00 | 0.00 | 75 | 1010.8 |
| 20260508023100 | 46 | 360 | 0.0 | 0.0 | 0.00 | 0.00 | 0.00 | 73 | 1010.7 |
| 20260508021601 | 47 | 360 | 0.0 | 0.0 | 0.00 | 0.00 | 0.00 | 72 | 1010.7 |
| 20260508020108 | 47 | 360 | 0.0 | 0.0 | 0.00 | 0.00 | 0.00 | 71 | 1010.7 |
| 20260508014559 | 48 | 360 | 0.0 | 0.0 | 0.00 | 0.00 | 0.00 | 69 | 1010.5 |
| 20260508013058 | 49 | 360 | 0.0 | 0.0 | 0.00 | 0.00 | 0.00 | 68 | 1010.3 |
| 20260508011558 | 50 | 360 | 0.0 | 4.0 | 0.00 | 0.00 | 0.00 | 66 | 1010.6 |
| 20260508010114 | 50 | 360 | 2.0 | 6.0 | 0.00 | 0.00 | 0.00 | 63 | 1010.6 |
| 20260508004556 | 51 | 360 | 1.0 | 6.0 | 0.00 | 0.00 | 0.00 | 61 | 1010.5 |
| 20260508003103 | 52 | 360 | 0.0 | 5.0 | 0.00 | 0.00 | 0.00 | 57 | 1010.2 |
| 20260508001604 | 52 | 360 | 1.0 | 6.0 | 0.00 | 0.00 | 0.00 | 55 | 1010.1 |
| 20260508000008 | 53 | 360 | 0.0 | 1.0 | 0.00 | 0.00 | 0.00 | 50 | 1010.1 |
| 20260507234523 | 53 | 360 | 3.0 | 8.0 | 0.00 | 0.00 | 0.00 | 47 | 1010.1 |
| 20260507233042 | 54 | 360 | 0.0 | 2.0 | 0.00 | 0.00 | 0.00 | 46 | 1009.9 |
| 20260507231558 | 54 | 294 | 0.0 | 3.0 | 0.00 | 0.00 | 0.00 | 44 | 1009.9 |
| 20260507230002 | 55 | 360 | 1.0 | 6.0 | 0.00 | 0.00 | 0.00 | 45 | 1010.0 |